TimeCST,TemperatureF,Dew PointF,Humidity,Sea Level PressureIn,VisibilityMPH,Wind Direction,Wind SpeedMPH,Gust SpeedMPH,PrecipitationIn,Events,Conditions,WindDirDegrees,DateUTC
12:09 AM,10.4,-4.0,52,30.09,10.0,Calm,Calm,-,N/A,,Clear,0,2013-03-04 06:09:00
12:29 AM,10.4,-4.0,52,30.09,10.0,Calm,Calm,-,N/A,,Clear,0,2013-03-04 06:29:00
12:49 AM,8.6,-4.0,57,30.09,10.0,Calm,Calm,-,N/A,,Clear,0,2013-03-04 06:49:00
1:09 AM,8.6,-5.8,52,30.09,10.0,Calm,Calm,-,N/A,,Clear,0,2013-03-04 07:09:00
1:49 AM,6.8,-7.6,52,30.09,10.0,Calm,Calm,-,N/A,,Clear,0,2013-03-04 07:49:00
2:09 AM,5.0,-9.4,52,30.09,10.0,Calm,Calm,-,N/A,,Clear,0,2013-03-04 08:09:00
2:30 AM,3.2,-9.4,56,30.09,10.0,Calm,Calm,-,N/A,,Clear,0,2013-03-04 08:30:00
2:49 AM,3.2,-9.4,56,30.09,10.0,Calm,Calm,-,N/A,,Clear,0,2013-03-04 08:49:00
3:09 AM,3.2,-9.4,56,30.09,10.0,Calm,Calm,-,N/A,,Clear,0,2013-03-04 09:09:00
3:29 AM,1.4,-9.4,61,30.09,10.0,Calm,Calm,-,N/A,,Clear,0,2013-03-04 09:29:00
3:50 AM,1.4,-11.2,56,30.09,10.0,Calm,Calm,-,N/A,,Clear,0,2013-03-04 09:50:00
4:10 AM,1.4,-9.4,61,30.09,10.0,Calm,Calm,-,N/A,,Clear,0,2013-03-04 10:10:00
4:29 AM,1.4,-9.4,61,30.09,10.0,Calm,Calm,-,N/A,,Clear,0,2013-03-04 10:29:00
4:49 AM,1.4,-11.2,56,30.09,10.0,Calm,Calm,-,N/A,,Clear,0,2013-03-04 10:49:00
5:09 AM,-0.4,-11.2,60,30.10,10.0,Calm,Calm,-,N/A,,Clear,0,2013-03-04 11:09:00
5:30 AM,-0.4,-11.2,60,30.10,10.0,Calm,Calm,-,N/A,,Clear,0,2013-03-04 11:30:00
5:50 AM,-0.4,-11.2,60,30.10,10.0,Calm,Calm,-,N/A,,Clear,0,2013-03-04 11:50:00
6:09 AM,-2.2,-13.0,60,30.11,10.0,Calm,Calm,-,N/A,,Clear,0,2013-03-04 12:09:00
6:29 AM,-2.2,-13.0,60,30.11,10.0,Calm,Calm,-,N/A,,Clear,0,2013-03-04 12:29:00
6:49 AM,-2.2,-14.8,55,30.11,10.0,Calm,Calm,-,N/A,,Clear,0,2013-03-04 12:49:00
7:10 AM,-2.2,-14.8,55,30.11,10.0,Calm,Calm,-,N/A,,Clear,0,2013-03-04 13:10:00
7:49 AM,1.4,-5.8,72,30.11,10.0,Calm,Calm,-,N/A,,Mostly Cloudy,0,2013-03-04 13:49:00
8:09 AM,10.4,3.2,73,30.11,10.0,Calm,Calm,-,N/A,,Overcast,0,2013-03-04 14:09:00
8:29 AM,14.0,6.8,73,30.11,10.0,ESE,3.5,-,N/A,,Overcast,110,2013-03-04 14:29:00
8:49 AM,15.8,6.8,68,30.10,10.0,Calm,Calm,-,N/A,,Overcast,0,2013-03-04 14:49:00
9:09 AM,17.6,8.6,68,30.10,10.0,Calm,Calm,-,N/A,,Overcast,0,2013-03-04 15:09:00
9:30 AM,19.4,10.4,68,30.10,10.0,East,3.5,-,N/A,,Overcast,100,2013-03-04 15:30:00
9:49 AM,21.2,10.4,63,30.10,10.0,East,3.5,-,N/A,,Overcast,100,2013-03-04 15:49:00
10:09 AM,24.8,12.2,59,30.10,10.0,ESE,3.5,-,N/A,,Overcast,110,2013-03-04 16:09:00
10:29 AM,26.6,12.2,55,30.09,10.0,ESE,4.6,-,N/A,,Overcast,110,2013-03-04 16:29:00
10:49 AM,28.4,15.8,59,30.09,10.0,SSE,4.6,-,N/A,,Overcast,150,2013-03-04 16:49:00
11:09 AM,30.2,15.8,55,30.09,10.0,East,5.8,-,N/A,,Overcast,100,2013-03-04 17:09:00
11:29 AM,33.8,14.0,44,30.09,10.0,ESE,5.8,-,N/A,,Mostly Cloudy,110,2013-03-04 17:29:00
11:50 AM,33.8,10.4,38,30.08,10.0,Calm,Calm,-,N/A,,Scattered Clouds,0,2013-03-04 17:50:00
12:09 PM,33.8,12.2,41,30.08,10.0,ESE,4.6,-,N/A,,Scattered Clouds,120,2013-03-04 18:09:00
12:49 PM,35.6,14.0,41,30.06,10.0,ESE,5.8,-,N/A,,Overcast,120,2013-03-04 18:49:00
1:09 PM,35.6,12.2,38,30.05,10.0,ESE,6.9,-,N/A,,Scattered Clouds,120,2013-03-04 19:09:00
1:29 PM,35.6,12.2,38,30.04,10.0,SSE,8.1,-,N/A,,Scattered Clouds,150,2013-03-04 19:29:00
1:49 PM,33.8,10.4,38,30.05,10.0,ESE,3.5,-,N/A,,Overcast,110,2013-03-04 19:49:00
2:09 PM,33.8,12.2,41,30.05,10.0,SSE,3.5,-,N/A,,Overcast,150,2013-03-04 20:09:00
2:29 PM,33.8,12.2,41,30.05,10.0,SE,5.8,-,N/A,,Overcast,130,2013-03-04 20:29:00
2:49 PM,32.0,12.2,44,30.05,10.0,ESE,5.8,-,N/A,,Overcast,120,2013-03-04 20:49:00
3:09 PM,32.0,14.0,48,30.06,10.0,ESE,3.5,-,N/A,,Mostly Cloudy,120,2013-03-04 21:09:00
3:29 PM,32.0,12.2,44,30.06,10.0,ESE,3.5,-,N/A,,Mostly Cloudy,110,2013-03-04 21:29:00
3:49 PM,30.2,12.2,47,30.07,10.0,SE,6.9,-,N/A,,Mostly Cloudy,130,2013-03-04 21:49:00
4:09 PM,28.4,12.2,51,30.07,10.0,SE,3.5,-,N/A,,Overcast,130,2013-03-04 22:09:00
4:29 PM,28.4,12.2,51,30.08,10.0,Calm,Calm,-,N/A,,Overcast,0,2013-03-04 22:29:00
4:49 PM,28.4,12.2,51,30.08,10.0,Calm,Calm,-,N/A,,Overcast,0,2013-03-04 22:49:00
5:09 PM,28.4,12.2,51,30.09,10.0,ESE,3.5,-,N/A,,Overcast,110,2013-03-04 23:09:00
5:29 PM,28.4,10.4,47,30.09,10.0,ESE,3.5,-,N/A,,Overcast,120,2013-03-04 23:29:00
5:49 PM,26.6,8.6,47,30.09,10.0,Calm,Calm,-,N/A,,Overcast,0,2013-03-04 23:49:00
6:09 PM,26.6,8.6,47,30.09,10.0,Calm,Calm,-,N/A,,Overcast,0,2013-03-05 00:09:00
6:29 PM,26.6,8.6,47,30.10,10.0,Calm,Calm,-,N/A,,Overcast,0,2013-03-05 00:29:00
6:49 PM,26.6,8.6,47,30.10,10.0,Calm,Calm,-,N/A,,Overcast,0,2013-03-05 00:49:00
7:09 PM,24.8,8.6,50,30.10,10.0,Calm,Calm,-,N/A,,Overcast,0,2013-03-05 01:09:00
7:29 PM,24.8,10.4,54,30.10,10.0,SE,3.5,-,N/A,,Overcast,130,2013-03-05 01:29:00
7:49 PM,24.8,10.4,54,30.11,10.0,Calm,Calm,-,N/A,,Overcast,0,2013-03-05 01:49:00
8:29 PM,24.8,10.4,54,30.10,10.0,Calm,Calm,-,N/A,,Overcast,0,2013-03-05 02:29:00
8:49 PM,24.8,10.4,54,30.10,10.0,Calm,Calm,-,N/A,,Overcast,0,2013-03-05 02:49:00
9:09 PM,23.0,10.4,59,30.10,10.0,Calm,Calm,-,N/A,,Overcast,0,2013-03-05 03:09:00
9:29 PM,24.8,10.4,54,30.11,10.0,Calm,Calm,-,N/A,,Overcast,0,2013-03-05 03:29:00
9:49 PM,24.8,10.4,54,30.12,10.0,Calm,Calm,-,N/A,,Overcast,0,2013-03-05 03:49:00
10:09 PM,23.0,8.6,54,30.13,10.0,Calm,Calm,-,N/A,,Overcast,0,2013-03-05 04:09:00
10:29 PM,23.0,8.6,54,30.13,10.0,Calm,Calm,-,N/A,,Overcast,0,2013-03-05 04:29:00
10:49 PM,23.0,8.6,54,30.13,10.0,Calm,Calm,-,N/A,,Overcast,0,2013-03-05 04:49:00
11:09 PM,23.0,8.6,54,30.14,10.0,Calm,Calm,-,N/A,,Overcast,0,2013-03-05 05:09:00
11:29 PM,21.2,8.6,58,30.15,10.0,ESE,3.5,-,N/A,,Overcast,110,2013-03-05 05:29:00
11:49 PM,21.2,8.6,58,30.15,10.0,Calm,Calm,-,N/A,,Overcast,0,2013-03-05 05:49:00